PDT,Max TemperatureF,Mean TemperatureF,Min TemperatureF,Max Dew PointF,MeanDew PointF,Min DewpointF,Max Humidity, Mean Humidity, Min Humidity, Max Sea Level PressureIn, Mean Sea Level PressureIn, Min Sea Level PressureIn, Max VisibilityMiles, Mean VisibilityMiles, Min VisibilityMiles, Max Wind SpeedMPH, Mean Wind SpeedMPH, Max Gust SpeedMPH,PrecipitationIn, CloudCover, Events, WindDirDegrees
2013-10-1,54,44,33,39,34,28,89,64,32,30.11,29.99,29.91,10,10,10,15,5,24,0.04,0,,303
2013-10-2,53,47,41,44,38,34,93,74,54,30.13,30.10,30.05,10,10,10,10,4,13,T,5,Rain,273
2013-10-3,59,47,34,43,36,30,89,62,30,30.43,30.28,30.14,10,10,10,14,8,,0.00,1,,296
2013-10-4,59,45,30,38,36,34,86,60,35,30.53,30.45,30.38,10,10,4,12,7,,0.00,0,,307
2013-10-5,63,47,30,42,38,35,86,61,40,30.40,30.33,30.25,10,9,2,9,4,48,0.00,0,,133
2013-10-6,66,50,34,43,40,36,87,67,33,30.25,30.11,29.89,10,5,1,12,5,25,0.00,0,,300
2013-10-7,64,52,40,42,37,30,85,56,28,29.90,29.87,29.83,10,10,10,25,8,36,0.02,1,,277
2013-10-8,53,45,37,39,36,31,73,58,37,30.04,29.91,29.85,10,10,10,25,7,33,0.06,3,Rain,322
2013-10-9,60,49,37,39,34,30,79,56,32,30.14,30.02,29.87,10,10,10,15,5,31,0.00,2,,283
2013-10-10,55,44,32,34,31,28,58,43,26,30.01,29.89,29.83,10,10,10,24,10,31,T,2,,309
2013-10-11,59,49,38,37,34,29,79,56,33,30.14,30.07,30.03,10,10,10,24,7,26,0.00,3,,247
2013-10-12,52,45,37,39,37,34,76,63,49,30.18,30.08,30.01,10,10,10,17,9,17,T,7,,278
2013-10-13,55,41,26,38,35,30,86,57,30,30.33,30.24,30.19,10,10,10,18,9,25,0.00,0,,205
2013-10-14,57,45,32,36,32,28,87,57,27,30.44,30.39,30.34,10,10,10,17,7,23,0.00,0,,253
2013-10-15,57,41,24,36,34,31,79,59,35,30.43,30.31,30.16,10,10,10,15,7,21,0.00,0,,101
2013-10-16,57,44,31,39,36,34,76,54,34,30.21,30.16,30.11,10,10,9,8,3,,0.00,3,,312
2013-10-17,55,40,24,39,37,34,86,61,34,30.29,30.25,30.21,10,10,9,9,3,,0.00,0,,305
2013-10-18,62,50,38,39,37,35,85,62,39,30.31,30.25,30.17,10,7,2,13,5,14,0.00,0,,314
2013-10-19,61,44,27,40,38,36,86,66,39,30.18,30.14,30.08,10,10,10,7,2,,0.00,0,,307
2013-10-20,70,55,40,43,40,38,89,61,32,30.18,30.13,30.06,10,10,10,12,5,13,0.00,0,,288
2013-10-21,64,48,32,44,41,39,80,61,35,30.22,30.16,30.11,10,10,10,10,5,24,0.00,0,,340
2013-10-22,63,47,31,43,42,40,89,66,40,30.22,30.15,30.08,10,10,10,8,2,,0.00,0,,315
2013-10-23,59,45,30,44,42,39,93,70,43,30.18,30.13,30.08,10,10,10,7,3,,0.00,0,,301
2013-10-24,59,45,30,43,41,37,89,70,43,30.16,30.11,30.05,10,10,10,9,4,,0.00,0,,301
2013-10-25,54,42,29,42,41,37,89,72,48,30.27,30.22,30.14,10,10,8,7,4,,0.00,0,,300
2013-10-26,46,37,28,42,40,37,97,77,48,30.34,30.24,30.05,10,10,6,9,4,,0.00,1,,285
2013-10-27,55,48,40,45,40,33,89,68,46,30.01,29.88,29.80,10,9,4,33,12,52,0.15,6,Rain,353
2013-10-28,45,40,34,33,23,19,47,34,25,30.02,29.97,29.92,10,10,10,30,17,46,T,3,,15
2013-10-29,53,41,30,28,25,23,76,56,34,30.06,30.01,29.96,10,10,10,9,3,,0.00,0,,104
2013-10-30,46,31,16,31,28,24,89,65,44,30.09,30.05,30.01,10,10,10,12,3,,0.00,1,,97
2013-10-31,65,50,35,37,33,29,76,53,30,30.19,30.07,30.02,10,10,10,23,7,30,0.00,1,,319